Time;durP1;ratioP1;P1;durP2;ratioP2;P2;SDS_P1;SDS_P2;PMS_P1;PMS_P2;Temp;Humidity;BMP_temperature;BMP_pressure;BME280_temperature;BME280_humidity;BME280_pressure;Samples;Min_cycle;Max_cycle;Signal;HPM_P1;HPM_P2
2023/03/21 00:02:54;;;;;;;27.80;18.70;;;;;;;20.28;56.38;99070.30;270640;1270;22632;-77
2023/03/21 00:08:59;;;;;;;27.10;17.20;;;;;;;20.30;56.53;99072.14;269144;1273;22561;-77
2023/03/21 00:15:04;;;;;;;28.30;17.90;;;;;;;20.79;55.75;99068.62;269135;1270;22534;-76
2023/03/21 00:21:07;;;;;;;24.20;16.70;;;;;;;20.89;55.45;99066.08;268294;1267;22661;-70
2023/03/21 00:27:29;;;;;;;23.20;16.00;;;;;;;20.68;55.86;99065.40;267442;1269;22555;-73
2023/03/21 00:33:50;;;;;;;26.30;16.30;;;;;;;20.16;56.81;99056.77;268168;1270;22582;-72
2023/03/21 00:39:52;;;;;;;26.00;16.60;;;;;;;19.86;57.65;99055.19;267656;1273;22523;-77
2023/03/21 00:45:57;;;;;;;25.70;16.80;;;;;;;20.02;57.48;99047.84;267955;1274;25284;-78
2023/03/21 00:51:59;;;;;;;25.50;17.70;;;;;;;19.99;57.52;99043.14;267513;1272;22570;-77
2023/03/21 00:58:18;;;;;;;25.50;17.20;;;;;;;19.92;57.75;99038.04;268208;1267;22575;-77
2023/03/21 01:04:20;;;;;;;26.90;18.60;;;;;;;19.85;57.63;99035.93;268049;1267;24532;-77
2023/03/21 01:10:22;;;;;;;25.70;16.80;;;;;;;19.63;58.23;99033.44;267178;1267;25252;-77
2023/03/21 01:16:24;;;;;;;28.40;17.40;;;;;;;19.81;58.01;99037.36;267889;1267;22458;-74
2023/03/21 01:22:26;;;;;;;27.30;17.30;;;;;;;20.07;57.30;99033.45;267636;1273;22489;-74
2023/03/21 01:28:29;;;;;;;27.90;17.40;;;;;;;20.16;57.13;99032.81;267494;1266;22540;-73
2023/03/21 01:34:31;;;;;;;29.60;18.30;;;;;;;20.20;56.94;99037.95;267560;1271;25335;-75
2023/03/21 01:40:32;;;;;;;28.50;18.10;;;;;;;20.07;57.15;99034.64;267232;1273;25519;-74
2023/03/21 01:46:54;;;;;;;30.30;18.70;;;;;;;20.07;57.12;99038.88;267549;1267;22530;-74
2023/03/21 01:53:21;;;;;;;28.00;18.50;;;;;;;20.16;57.02;99033.41;267352;1270;22883;-74
2023/03/21 01:59:43;;;;;;;26.70;16.90;;;;;;;20.11;57.08;99037.05;267787;1267;22569;-74
2023/03/21 02:06:29;;;;;;;27.50;17.70;;;;;;;19.96;57.38;99033.04;267510;1267;22572;-76
2023/03/21 02:12:32;;;;;;;27.70;17.40;;;;;;;19.90;57.47;99033.04;266232;1277;24014;-76
2023/03/21 02:18:44;;;;;;;30.90;19.20;;;;;;;19.83;57.77;99031.81;266251;1276;25454;-77
2023/03/21 02:25:48;;;;;;;28.80;19.20;;;;;;;19.82;57.59;99031.77;265911;1281;25404;-76
2023/03/21 02:32:23;;;;;;;27.20;18.30;;;;;;;19.75;57.77;99029.36;263639;1294;25321;-76
2023/03/21 02:39:00;;;;;;;27.90;17.90;;;;;;;19.89;57.54;99028.36;263898;1282;22596;-75
2023/03/21 02:45:18;;;;;;;26.30;18.00;;;;;;;19.91;57.42;99031.39;264121;1288;24301;-75
2023/03/21 02:51:26;;;;;;;27.20;18.10;;;;;;;19.84;57.76;99030.55;264584;1283;22636;-76
2023/03/21 02:57:28;;;;;;;30.80;19.20;;;;;;;19.75;58.25;99028.41;264671;1283;22588;-76
2023/03/21 03:03:44;;;;;;;30.40;20.30;;;;;;;19.27;59.40;99032.42;265566;1270;22540;-74
2023/03/21 03:10:14;;;;;;;29.70;20.20;;;;;;;19.42;59.58;99028.55;266924;1273;22611;-75
2023/03/21 03:16:27;;;;;;;31.00;20.60;;;;;;;19.57;59.64;99031.98;267301;1267;25450;-76
2023/03/21 03:22:43;;;;;;;32.00;20.60;;;;;;;19.34;59.99;99032.73;267878;1270;22531;-80
2023/03/21 03:28:48;;;;;;;31.00;20.70;;;;;;;18.99;61.45;99035.21;268424;1269;25400;-77
2023/03/21 03:34:55;;;;;;;;;;;;;;;19.00;61.57;99032.35;268314;1266;22557;-78
2023/03/21 03:41:17;;;;;;;34.60;22.00;;;;;;;19.24;61.31;99035.34;268510;1253;25412;-76
2023/03/21 03:47:51;;;;;;;34.70;22.50;;;;;;;18.60;62.79;99034.69;267233;1270;25344;-75
2023/03/21 03:54:05;;;;;;;41.90;26.00;;;;;;;18.98;62.16;99034.06;267663;1267;25290;-75
2023/03/21 04:00:11;;;;;;;42.80;27.00;;;;;;;19.01;61.87;99036.98;267631;1267;24249;-75
2023/03/21 04:06:20;;;;;;;40.30;23.90;;;;;;;18.88;62.11;99035.61;267228;1252;22630;-74
2023/03/21 04:12:24;;;;;;;44.50;26.80;;;;;;;18.78;62.67;99034.11;266986;1263;25445;-75
2023/03/21 04:18:58;;;;;;;43.20;25.90;;;;;;;18.87;62.26;99030.61;267057;1270;24160;-75
2023/03/21 04:25:04;;;;;;;41.30;25.00;;;;;;;18.87;62.22;99025.10;267268;1267;22545;-76
2023/03/21 04:31:12;;;;;;;39.60;24.90;;;;;;;19.02;61.86;99028.41;268334;1273;24487;-79
2023/03/21 04:37:27;;;;;;;41.10;25.10;;;;;;;18.91;61.94;99024.96;268471;1266;22539;-75
2023/03/21 04:43:29;;;;;;;37.60;22.70;;;;;;;18.71;62.52;99026.60;267434;1270;23128;-75
2023/03/21 04:49:35;;;;;;;33.30;21.10;;;;;;;18.77;62.48;99028.52;268026;1266;22534;-80
2023/03/21 04:55:39;;;;;;;38.70;22.70;;;;;;;18.64;62.67;99032.48;268733;1270;22621;-76
2023/03/21 05:01:42;;;;;;;35.30;21.40;;;;;;;18.90;62.18;99040.71;267197;1266;24121;-77
2023/03/21 05:07:44;;;;;;;33.20;20.10;;;;;;;19.13;61.37;99043.09;267036;1267;22751;-76
2023/03/21 05:13:51;;;;;;;34.40;20.90;;;;;;;18.97;61.77;99043.77;268028;1273;22584;-80
2023/03/21 05:19:59;;;;;;;33.20;19.20;;;;;;;18.97;61.72;99040.17;268548;1267;22632;-80
2023/03/21 05:26:01;;;;;;;30.50;18.40;;;;;;;19.09;61.36;99044.05;268009;1266;23475;-77
2023/03/21 05:32:25;;;;;;;26.60;16.60;;;;;;;19.16;60.96;99048.45;267375;1257;25240;-78
2023/03/21 05:38:27;;;;;;;24.40;14.90;;;;;;;19.09;60.94;99053.59;268701;1273;24253;-77
2023/03/21 05:44:29;;;;;;;26.10;15.00;;;;;;;19.16;60.56;99062.30;267945;1266;22692;-76
2023/03/21 05:50:32;;;;;;;21.10;12.40;;;;;;;19.46;59.75;99063.77;267644;1260;22622;-72
2023/03/21 05:56:41;;;;;;;20.30;12.70;;;;;;;19.50;59.60;99069.35;267845;1253;22581;-74
2023/03/21 06:02:46;;;;;;;20.80;12.40;;;;;;;19.74;58.76;99072.56;267447;1269;25304;-72
2023/03/21 06:09:06;;;;;;;21.00;11.40;;;;;;;19.48;59.05;99074.66;267249;1256;22594;-72
2023/03/21 06:15:08;;;;;;;16.20;10.80;;;;;;;19.47;59.23;99076.69;267550;1256;25298;-71
2023/03/21 06:21:19;;;;;;;18.10;10.20;;;;;;;19.69;58.52;99068.38;267229;1256;22565;-72
2023/03/21 06:27:22;;;;;;;18.00;9.80;;;;;;;19.84;57.96;99070.05;267240;1267;22547;-75
2023/03/21 06:33:27;;;;;;;15.30;9.40;;;;;;;20.11;57.41;99076.33;267362;1267;22544;-71
2023/03/21 06:39:30;;;;;;;17.30;10.30;;;;;;;20.07;57.33;99070.98;267779;1266;25323;-71
2023/03/21 06:45:31;;;;;;;17.10;10.00;;;;;;;20.03;56.91;99072.93;268468;1262;22525;-73
2023/03/21 06:51:33;;;;;;;14.40;9.10;;;;;;;20.53;56.03;99080.80;267303;1259;22562;-71
2023/03/21 06:57:45;;;;;;;13.30;8.30;;;;;;;20.44;55.46;99078.48;268224;1267;22535;-74
2023/03/21 07:03:47;;;;;;;11.50;7.70;;;;;;;20.80;55.09;99083.85;269602;1252;22715;-74
2023/03/21 07:09:49;;;;;;;15.90;8.40;;;;;;;21.07;54.20;99083.31;270507;1268;22568;-76
2023/03/21 07:15:52;;;;;;;14.90;9.20;;;;;;;21.31;53.89;99082.82;269331;1253;24353;-71
2023/03/21 07:21:54;;;;;;;12.70;8.10;;;;;;;21.72;53.29;99083.65;267889;1266;22548;-73
2023/03/21 07:27:55;;;;;;;12.10;8.00;;;;;;;21.77;53.10;99083.30;267342;1259;23385;-74
2023/03/21 07:33:57;;;;;;;9.70;6.80;;;;;;;22.27;52.22;99076.27;267584;1262;22529;-73
2023/03/21 07:39:59;;;;;;;11.20;6.50;;;;;;;22.56;51.30;99070.02;267030;1268;22611;-74
2023/03/21 07:46:01;;;;;;;10.80;6.20;;;;;;;22.47;51.12;99068.58;267226;1266;22538;-73
2023/03/21 07:52:03;;;;;;;9.20;6.10;;;;;;;22.24;51.26;99077.36;267074;1269;259539;-74
2023/03/21 07:58:06;;;;;;;10.40;6.00;;;;;;;22.65;50.55;99080.23;267391;1270;25364;-74
2023/03/21 08:04:07;;;;;;;8.70;6.00;;;;;;;22.89;50.15;99080.20;267641;1262;22642;-74
2023/03/21 08:10:10;;;;;;;9.70;6.40;;;;;;;23.29;49.48;99081.67;267553;1268;23386;-74
2023/03/21 08:16:12;;;;;;;9.00;5.90;;;;;;;23.95;48.37;99076.05;267659;1266;22555;-74
2023/03/21 08:22:13;;;;;;;9.00;6.20;;;;;;;23.40;49.05;99079.29;267735;1269;22548;-74
2023/03/21 08:28:15;;;;;;;9.70;6.50;;;;;;;22.76;49.98;99082.84;267086;1266;22618;-74
2023/03/21 08:34:16;;;;;;;9.50;7.00;;;;;;;21.47;52.02;99091.44;267511;1258;24269;-73
2023/03/21 08:40:19;;;;;;;8.90;6.20;;;;;;;21.68;52.07;99095.98;267625;1268;22523;-74
2023/03/21 08:46:21;;;;;;;10.70;6.30;;;;;;;21.38;52.88;99104.08;267353;1266;22818;-74
2023/03/21 08:52:22;;;;;;;9.00;5.40;;;;;;;21.31;53.15;99108.79;267385;1253;23300;-73
2023/03/21 08:58:24;;;;;;;8.20;5.20;;;;;;;21.38;53.57;99119.11;267330;1262;25378;-73
2023/03/21 09:04:26;;;;;;;9.40;6.60;;;;;;;21.48;53.30;99123.81;267584;1269;24341;-73
2023/03/21 09:10:28;;;;;;;11.70;6.60;;;;;;;21.71;52.34;99124.34;267836;1266;22323;-74
2023/03/21 09:16:30;;;;;;;12.10;7.20;;;;;;;21.91;52.47;99125.84;267332;1262;24702;-73
2023/03/21 09:22:32;;;;;;;11.40;7.30;;;;;;;22.63;51.58;99118.66;267303;1270;22531;-73
2023/03/21 09:28:36;;;;;;;12.40;8.20;;;;;;;22.16;52.01;99124.65;267460;1262;22603;-73
2023/03/21 09:34:39;;;;;;;12.80;8.50;;;;;;;22.36;52.20;99119.88;267348;1268;23266;-73
2023/03/21 09:41:12;;;;;;;12.50;8.80;;;;;;;21.87;52.44;99125.40;267269;1269;22517;-73
2023/03/21 09:47:27;;;;;;;13.30;9.70;;;;;;;22.12;52.26;99121.08;267447;1270;23210;-74
2023/03/21 09:53:34;;;;;;;14.30;10.70;;;;;;;21.97;52.23;99129.58;266744;1265;25389;-73
2023/03/21 09:59:38;;;;;;;17.40;13.10;;;;;;;21.88;52.30;99124.89;267358;1262;23274;-76
2023/03/21 10:05:43;;;;;;;19.40;13.60;;;;;;;21.57;53.14;99122.96;267041;1268;26699;-73
2023/03/21 10:11:49;;;;;;;17.00;12.40;;;;;;;21.26;53.84;99123.26;267842;1256;22666;-78
2023/03/21 10:17:55;;;;;;;18.30;12.70;;;;;;;21.74;52.43;99123.80;267254;1258;24194;-73
2023/03/21 10:23:59;;;;;;;24.00;14.50;;;;;;;22.15;50.99;99128.33;267667;1260;22557;-73
2023/03/21 10:30:04;;;;;;;21.40;13.90;;;;;;;21.93;50.68;99132.55;267276;1273;22527;-74
2023/03/21 10:36:28;;;;;;;19.10;12.60;;;;;;;21.87;50.80;99128.66;267409;1259;22696;-73
2023/03/21 10:42:32;;;;;;;22.40;14.60;;;;;;;21.90;50.83;99129.16;267521;1255;25271;-73
2023/03/21 10:48:36;;;;;;;20.60;14.10;;;;;;;22.07;50.32;99127.96;267722;1261;22640;-73
2023/03/21 10:54:38;;;;;;;19.50;13.80;;;;;;;21.93;50.58;99133.62;267404;1268;25447;-73
2023/03/21 11:00:40;;;;;;;22.00;13.60;;;;;;;22.11;49.74;99127.42;267373;1266;22747;-73
2023/03/21 11:06:45;;;;;;;21.50;13.90;;;;;;;21.99;50.19;99123.55;266909;1268;22635;-73
2023/03/21 11:12:47;;;;;;;20.60;13.60;;;;;;;22.50;49.30;99115.79;267660;1258;22534;-74
2023/03/21 11:18:50;;;;;;;19.60;13.50;;;;;;;22.72;49.29;99118.09;267413;1256;22529;-73
2023/03/21 11:24:57;;;;;;;20.40;14.10;;;;;;;22.32;49.91;99120.61;267003;1269;24144;-73
2023/03/21 11:31:01;;;;;;;20.60;14.00;;;;;;;22.32;49.91;99117.98;267114;1268;24258;-73
2023/03/21 11:37:03;;;;;;;21.00;13.80;;;;;;;23.11;48.58;99109.93;267949;1265;22531;-72
2023/03/21 11:43:16;;;;;;;20.10;14.50;;;;;;;23.27;47.99;99106.63;269495;1268;25370;-74
2023/03/21 11:49:19;;;;;;;21.70;14.70;;;;;;;23.27;47.67;99105.91;267257;1268;25334;-73
2023/03/21 11:55:36;;;;;;;20.00;14.30;;;;;;;22.69;48.42;99101.89;268460;1269;22997;-74
2023/03/21 12:02:03;;;;;;;25.40;16.70;;;;;;;21.92;49.17;99108.23;269163;1260;22665;-74
2023/03/21 12:08:12;;;;;;;;;;;;;;;21.41;49.66;99108.02;269498;1262;24180;-74
2023/03/21 12:14:38;;;;;;;25.60;15.80;;;;;;;22.19;48.79;99097.45;266853;1251;22735;-73
2023/03/21 12:20:54;;;;;;;26.50;17.50;;;;;;;22.58;48.24;99094.49;267237;1272;24255;-75
2023/03/21 12:27:13;;;;;;;27.70;18.10;;;;;;;22.92;47.47;99090.11;267505;1269;24915;-73
2023/03/21 12:33:47;;;;;;;30.20;19.30;;;;;;;22.42;48.06;99085.52;267338;1266;24173;-74
2023/03/21 12:39:49;;;;;;;33.30;20.60;;;;;;;21.52;49.42;99089.17;267515;1266;22469;-74
2023/03/21 12:45:56;;;;;;;28.00;19.20;;;;;;;21.89;49.07;99083.16;267313;1267;23282;-74
2023/03/21 12:52:23;;;;;;;27.70;19.50;;;;;;;21.90;48.99;99078.10;267055;1265;24045;-73
2023/03/21 12:58:30;;;;;;;32.00;19.60;;;;;;;22.09;48.86;99073.90;267335;1269;22727;-74
2023/03/21 13:04:42;;;;;;;28.50;17.90;;;;;;;22.38;47.83;99071.59;267220;1260;25220;-75
2023/03/21 13:10:45;;;;;;;29.00;17.90;;;;;;;21.77;49.01;99073.38;267329;1250;24213;-73
2023/03/21 13:16:54;;;;;;;29.40;18.50;;;;;;;22.13;49.60;99071.76;267315;1266;22687;-73
2023/03/21 13:22:56;;;;;;;31.80;20.10;;;;;;;22.52;49.79;99064.96;267147;1274;22596;-73
2023/03/21 13:28:58;;;;;;;31.00;19.80;;;;;;;22.72;49.64;99058.86;266997;1271;24259;-74
2023/03/21 13:35:14;;;;;;;31.30;20.10;;;;;;;22.67;49.68;99053.42;267191;1267;22752;-74
2023/03/21 13:41:39;;;;;;;33.50;21.60;;;;;;;22.50;49.88;99053.01;267262;1256;25031;-74
2023/03/21 13:47:53;;;;;;;31.30;20.90;;;;;;;22.58;49.98;99048.50;267040;1260;22636;-74
2023/03/21 13:54:00;;;;;;;32.90;20.50;;;;;;;22.90;49.39;99048.10;267339;1271;24515;-74
2023/03/21 14:00:24;;;;;;;30.80;19.60;;;;;;;22.21;49.81;99054.34;267101;1268;22546;-73
2023/03/21 14:06:38;;;;;;;28.70;19.30;;;;;;;21.35;50.45;99058.90;267552;1263;22545;-74
2023/03/21 14:12:41;;;;;;;34.50;21.40;;;;;;;21.68;50.52;99054.45;267392;1260;22534;-74
2023/03/21 14:18:52;;;;;;;31.60;20.90;;;;;;;21.63;52.09;99051.80;267419;1269;23892;-74
2023/03/21 14:24:59;;;;;;;31.10;19.70;;;;;;;21.62;53.09;99057.23;267122;1271;25240;-74
2023/03/21 14:31:01;;;;;;;34.20;21.40;;;;;;;21.04;54.33;99065.41;267448;1258;24231;-75
2023/03/21 14:37:06;;;;;;;33.20;22.10;;;;;;;20.61;56.94;99071.78;267504;1274;22548;-75
2023/03/21 14:43:10;;;;;;;35.70;21.50;;;;;;;21.14;55.55;99067.33;268108;1264;22540;-75
2023/03/21 14:49:25;;;;;;;37.80;22.80;;;;;;;20.89;56.38;99067.10;267580;1267;24741;-83
2023/03/21 14:55:26;;;;;;;37.70;23.40;;;;;;;20.75;56.86;99063.92;267550;1256;22529;-73
2023/03/21 15:01:31;;;;;;;31.50;20.40;;;;;;;21.04;56.17;99059.19;266850;1266;22937;-73
2023/03/21 15:07:33;;;;;;;29.30;19.30;;;;;;;21.54;54.86;99059.59;267552;1269;24387;-72
2023/03/21 15:13:39;;;;;;;29.40;19.70;;;;;;;21.90;53.87;99055.44;267724;1266;22549;-72
2023/03/21 15:19:42;;;;;;;34.50;21.30;;;;;;;21.38;54.48;99059.46;267403;1271;22567;-72
2023/03/21 15:25:44;;;;;;;36.20;22.80;;;;;;;21.25;54.49;99048.88;267180;1266;22537;-72
2023/03/21 15:31:47;;;;;;;43.00;25.00;;;;;;;21.23;54.19;99045.18;267470;1266;23367;-73
2023/03/21 15:37:54;;;;;;;39.10;23.10;;;;;;;21.34;54.28;99046.80;267807;1262;24422;-72
2023/03/21 15:44:08;;;;;;;36.40;21.80;;;;;;;21.38;54.12;99048.08;267514;1261;24270;-72
2023/03/21 15:50:24;;;;;;;32.10;20.10;;;;;;;21.38;54.19;99045.66;267020;1261;24086;-73
2023/03/21 15:56:33;;;;;;;35.10;21.00;;;;;;;21.38;54.25;99050.55;267990;1266;25090;-72
2023/03/21 16:02:35;;;;;;;37.70;22.30;;;;;;;20.73;55.63;99049.97;267309;1262;23282;-73
2023/03/21 16:08:41;;;;;;;39.70;22.80;;;;;;;20.69;55.87;99049.44;266934;1252;22529;-76
2023/03/21 16:14:43;;;;;;;38.70;24.00;;;;;;;20.54;56.42;99048.89;266848;1266;22646;-73
2023/03/21 16:20:45;;;;;;;40.90;23.30;;;;;;;20.42;56.94;99051.81;267966;1272;22676;-87
2023/03/21 16:26:50;;;;;;;40.00;24.70;;;;;;;20.37;57.86;99050.02;268339;1273;22650;-74
2023/03/21 16:32:53;;;;;;;38.80;24.00;;;;;;;20.35;58.08;99051.93;267463;1262;23329;-72
2023/03/21 16:38:55;;;;;;;36.40;22.40;;;;;;;20.39;57.47;99055.14;267334;1269;22544;-72
2023/03/21 16:44:56;;;;;;;38.70;23.10;;;;;;;20.16;57.78;99052.95;267328;1269;25334;-75
2023/03/21 16:50:58;;;;;;;39.70;23.80;;;;;;;20.18;57.98;99057.67;267253;1256;25284;-73
2023/03/21 16:57:03;;;;;;;39.40;22.70;;;;;;;19.90;58.76;99055.41;267836;1263;23389;-73
2023/03/21 17:03:13;;;;;;;40.90;24.40;;;;;;;19.88;59.17;99061.06;268253;1269;25338;-71
2023/03/21 17:09:18;;;;;;;40.10;23.00;;;;;;;20.09;58.75;99054.41;267809;1272;22656;-72
2023/03/21 17:15:20;;;;;;;39.20;23.10;;;;;;;20.01;58.84;99054.14;267550;1266;22557;-72
2023/03/21 17:21:25;;;;;;;44.30;25.00;;;;;;;19.77;59.20;99066.97;267385;1270;22661;-72
2023/03/21 17:27:27;;;;;;;43.00;25.30;;;;;;;19.57;59.18;99071.02;267856;1272;22567;-72
2023/03/21 17:33:29;;;;;;;47.10;26.10;;;;;;;19.49;59.19;99075.15;267343;1267;22542;-72
2023/03/21 17:39:31;;;;;;;43.30;25.00;;;;;;;19.28;59.28;99079.39;267520;1260;24200;-72
2023/03/21 17:45:33;;;;;;;41.30;23.90;;;;;;;19.18;59.82;99084.23;269412;1270;24237;-72
2023/03/21 17:51:35;;;;;;;37.90;22.70;;;;;;;19.63;58.88;99087.04;266919;1263;24239;-79
2023/03/21 17:57:37;;;;;;;40.70;23.60;;;;;;;19.82;58.22;99088.02;267243;1264;25402;-79
2023/03/21 18:03:39;;;;;;;42.70;24.10;;;;;;;19.80;57.97;99085.54;267435;1274;22586;-76
2023/03/21 18:09:41;;;;;;;40.90;23.50;;;;;;;19.75;57.89;99090.23;266673;1273;22535;-77
2023/03/21 18:15:43;;;;;;;39.40;22.80;;;;;;;19.55;58.01;99097.34;266923;1269;23911;-73
2023/03/21 18:21:46;;;;;;;42.50;23.70;;;;;;;19.40;58.35;99102.02;267081;1267;25549;-74
2023/03/21 18:27:48;;;;;;;30.30;18.40;;;;;;;19.22;58.41;99107.91;266802;1271;22608;-71
2023/03/21 18:34:10;;;;;;;26.20;16.90;;;;;;;19.06;58.47;99105.83;267227;1273;25335;-72
2023/03/21 18:40:12;;;;;;;33.90;20.90;;;;;;;19.24;58.38;99103.38;266835;1262;24221;-70
2023/03/21 18:46:15;;;;;;;30.60;18.70;;;;;;;19.15;58.45;99104.70;268134;1267;22321;-71
2023/03/21 18:52:17;;;;;;;40.60;23.60;;;;;;;19.05;58.71;99106.47;267788;1266;23041;-71
2023/03/21 18:58:18;;;;;;;36.50;21.60;;;;;;;19.21;58.49;99110.75;266873;1267;25239;-70
2023/03/21 19:04:20;;;;;;;33.20;20.10;;;;;;;19.05;58.65;99110.51;266804;1268;23887;-72
2023/03/21 19:10:31;;;;;;;36.30;21.50;;;;;;;18.97;58.61;99108.48;266600;1267;22526;-72
2023/03/21 19:16:33;;;;;;;34.70;20.20;;;;;;;18.99;58.54;99103.78;266921;1271;22538;-72
2023/03/21 19:22:55;;;;;;;40.40;22.70;;;;;;;18.89;58.97;99105.42;266692;1267;25373;-71
2023/03/21 19:28:56;;;;;;;38.40;22.60;;;;;;;18.94;59.19;99109.16;267557;1267;24206;-76
2023/03/21 19:34:58;;;;;;;36.70;22.00;;;;;;;18.96;59.09;99109.09;267088;1267;22570;-77
2023/03/21 19:41:00;;;;;;;43.50;24.70;;;;;;;18.89;59.30;99109.80;267681;1267;23327;-74
2023/03/21 19:47:03;;;;;;;37.40;22.50;;;;;;;18.83;59.72;99117.32;267773;1273;22657;-84
2023/03/21 19:53:05;;;;;;;37.00;21.80;;;;;;;18.87;59.36;99116.63;263956;1274;5334677;-81
2023/03/21 19:59:07;;;;;;;35.20;21.10;;;;;;;18.92;59.11;99115.39;267676;1274;23525;-85
2023/03/21 20:05:10;;;;;;;40.30;22.20;;;;;;;18.91;59.01;99123.52;267647;1260;24760;-78
2023/03/21 20:11:14;;;;;;;37.50;22.10;;;;;;;18.87;59.08;99123.55;267466;1266;24224;-78
2023/03/21 20:17:15;;;;;;;39.30;23.00;;;;;;;18.79;59.16;99124.30;269716;1270;23700;-75
2023/03/21 20:23:20;;;;;;;37.10;22.60;;;;;;;18.77;59.25;99121.11;267711;1267;24212;-79
2023/03/21 20:29:22;;;;;;;40.70;23.80;;;;;;;18.71;59.38;99119.79;267478;1257;24262;-73
2023/03/21 20:35:44;;;;;;;40.20;22.20;;;;;;;18.78;59.28;99119.48;267896;1267;23296;-75
2023/03/21 20:42:06;;;;;;;45.50;23.70;;;;;;;18.83;59.18;99115.41;268132;1253;22530;-72
2023/03/21 20:48:08;;;;;;;39.30;23.80;;;;;;;18.93;58.87;99113.20;267724;1264;22530;-78
2023/03/21 20:54:10;;;;;;;44.20;25.70;;;;;;;18.68;59.33;99114.25;267853;1267;22517;-79
2023/03/21 21:00:15;;;;;;;41.50;25.10;;;;;;;18.59;59.65;99111.33;267780;1267;23271;-80
2023/03/21 21:06:20;;;;;;;51.70;29.70;;;;;;;18.69;59.41;99107.71;268001;1257;25359;-77
2023/03/21 21:12:26;;;;;;;39.40;24.20;;;;;;;18.57;59.71;99114.27;267692;1263;22522;-76
2023/03/21 21:18:29;;;;;;;45.90;25.60;;;;;;;18.38;60.48;99109.71;267370;1274;22547;-80
2023/03/21 21:24:30;;;;;;;46.70;26.80;;;;;;;18.41;60.65;99110.95;267738;1270;23451;-79
2023/03/21 21:30:36;;;;;;;45.00;26.00;;;;;;;18.33;60.90;99111.80;267984;1273;22596;-80
2023/03/21 21:36:45;;;;;;;56.20;31.00;;;;;;;18.40;60.42;99108.11;267468;1274;22072;-82
2023/03/21 21:42:48;;;;;;;53.50;30.50;;;;;;;18.52;60.21;99108.81;267813;1270;22583;-78
2023/03/21 21:48:49;;;;;;;68.00;37.00;;;;;;;18.66;60.04;99112.42;268005;1273;22566;-79
2023/03/21 21:54:51;;;;;;;56.60;31.90;;;;;;;18.58;60.11;99106.54;268329;1260;22707;-74
2023/03/21 22:00:57;;;;;;;63.80;35.50;;;;;;;18.82;59.45;99111.81;266973;1259;22544;-76
2023/03/21 22:07:00;;;;;;;52.20;29.50;;;;;;;18.64;59.65;99110.27;266650;1252;24755;-77
2023/03/21 22:13:05;;;;;;;64.50;33.70;;;;;;;18.52;59.93;99112.46;267200;1263;22527;-73
2023/03/21 22:19:07;;;;;;;56.70;31.20;;;;;;;18.79;59.59;99110.05;267132;1261;22523;-72
2023/03/21 22:25:11;;;;;;;53.20;31.20;;;;;;;18.59;59.64;99107.85;266762;1267;22576;-72
2023/03/21 22:31:15;;;;;;;54.20;31.80;;;;;;;18.56;59.54;99110.74;266636;1268;25619;-73
2023/03/21 22:37:16;;;;;;;56.30;31.50;;;;;;;18.49;59.59;99104.70;266869;1267;24199;-72
2023/03/21 22:43:18;;;;;;;61.70;34.00;;;;;;;18.41;59.67;99098.65;267007;1267;23199;-73
2023/03/21 22:49:19;;;;;;;57.60;31.80;;;;;;;18.35;60.23;99099.67;266794;1259;22731;-77
2023/03/21 22:55:21;;;;;;;60.10;33.80;;;;;;;18.34;60.25;99095.04;267437;1258;22481;-77
2023/03/21 23:01:22;;;;;;;56.70;32.20;;;;;;;18.50;60.08;99096.91;267628;1267;24267;-77
2023/03/21 23:07:24;;;;;;;61.90;33.90;;;;;;;18.37;60.13;99098.89;267840;1269;22528;-74
2023/03/21 23:13:26;;;;;;;57.10;31.70;;;;;;;18.36;60.00;99091.98;266858;1260;24749;-73
2023/03/21 23:19:28;;;;;;;53.30;31.00;;;;;;;18.18;60.33;99089.02;266749;1267;22547;-74
2023/03/21 23:25:32;;;;;;;62.90;34.60;;;;;;;18.16;60.24;99088.02;267057;1257;22532;-73
2023/03/21 23:31:34;;;;;;;72.20;37.90;;;;;;;18.39;59.77;99086.36;267518;1270;22538;-78
2023/03/21 23:37:36;;;;;;;63.40;35.30;;;;;;;18.27;60.06;99082.39;267862;1270;25384;-76
2023/03/21 23:43:37;;;;;;;56.80;31.90;;;;;;;18.19;60.10;99081.36;267882;1273;22651;-77
2023/03/21 23:49:39;;;;;;;57.70;32.90;;;;;;;18.16;60.11;99078.12;268483;1269;22602;-77
2023/03/21 23:55:41;;;;;;;61.30;33.50;;;;;;;18.17;60.37;99075.38;268780;1274;22567;-76
